createdAt,value
2023-03-04T00:02:00.714Z,100.00
2023-03-04T00:04:29.145Z,100.00
2023-03-04T00:06:57.678Z,100.00
2023-03-04T00:09:26.056Z,100.00
2023-03-04T00:11:54.462Z,100.00
2023-03-04T00:14:22.829Z,100.00
2023-03-04T00:16:51.226Z,100.00
2023-03-04T00:19:19.549Z,100.00
2023-03-04T00:21:47.997Z,100.00
2023-03-04T00:24:16.350Z,100.00
2023-03-04T00:26:44.714Z,100.00
2023-03-04T00:29:13.181Z,100.00
2023-03-04T00:31:41.532Z,100.00
2023-03-04T00:34:09.865Z,100.00
2023-03-04T00:36:38.235Z,100.00
2023-03-04T00:39:06.734Z,100.00
2023-03-04T00:41:35.030Z,100.00
2023-03-04T00:44:03.428Z,100.00
2023-03-04T00:46:31.805Z,100.00
2023-03-04T00:49:00.124Z,100.00
2023-03-04T00:51:28.552Z,100.00
2023-03-04T00:53:59.065Z,100.00
2023-03-04T00:56:29.027Z,100.00
2023-03-04T00:58:57.331Z,100.00
2023-03-04T01:01:25.829Z,100.00
2023-03-04T01:03:54.229Z,100.00
2023-03-04T01:06:22.647Z,100.00
2023-03-04T01:08:51.000Z,100.00
2023-03-04T01:11:19.389Z,100.00
2023-03-04T01:13:48.638Z,100.00
2023-03-04T01:16:17.064Z,100.00
2023-03-04T01:18:47.194Z,100.00
2023-03-04T01:21:15.621Z,100.00
2023-03-04T01:23:44.218Z,100.00
2023-03-04T01:26:12.556Z,100.00
2023-03-04T01:28:40.932Z,100.00
2023-03-04T01:31:09.357Z,100.00
2023-03-04T01:33:37.706Z,100.00
2023-03-04T01:36:06.499Z,100.00
2023-03-04T01:38:34.944Z,100.00
2023-03-04T01:41:03.406Z,100.00
2023-03-04T01:43:32.666Z,100.00
2023-03-04T01:46:01.606Z,100.00
2023-03-04T01:48:38.738Z,100.00
2023-03-04T01:51:14.866Z,100.00
2023-03-04T01:53:44.499Z,100.00
2023-03-04T01:56:16.496Z,100.00
2023-03-04T01:58:44.978Z,100.00
2023-03-04T02:01:14.531Z,100.00
2023-03-04T02:03:42.960Z,100.00
2023-03-04T02:06:11.341Z,100.00
2023-03-04T02:08:39.676Z,100.00
2023-03-04T02:11:08.074Z,100.00
2023-03-04T02:13:36.984Z,100.00
2023-03-04T02:16:05.411Z,100.00
2023-03-04T02:18:33.782Z,100.00
2023-03-04T02:21:09.158Z,100.00
2023-03-04T02:24:06.780Z,100.00
2023-03-04T02:26:35.601Z,100.00
2023-03-04T02:29:04.727Z,100.00
2023-03-04T02:31:40.051Z,100.00
2023-03-04T02:34:18.953Z,100.00
2023-03-04T02:36:49.369Z,100.00
2023-03-04T02:39:20.764Z,100.00
2023-03-04T02:41:52.123Z,100.00
2023-03-04T02:44:24.165Z,100.00
2023-03-04T02:46:53.460Z,100.00
2023-03-04T02:49:24.406Z,100.00
2023-03-04T02:51:59.240Z,100.00
2023-03-04T02:54:28.049Z,100.00
2023-03-04T02:57:00.746Z,100.00
2023-03-04T02:59:29.292Z,100.00
2023-03-04T03:01:57.947Z,99.99
2023-03-04T03:04:27.162Z,99.92
2023-03-04T03:06:55.883Z,99.86
2023-03-04T03:09:24.439Z,99.87
2023-03-04T03:11:52.856Z,99.78
2023-03-04T03:14:21.190Z,99.77
2023-03-04T03:16:49.533Z,99.44
2023-03-04T03:19:17.832Z,99.40
2023-03-04T03:21:46.260Z,99.26
2023-03-04T03:24:15.328Z,99.56
2023-03-04T03:26:43.672Z,99.53
2023-03-04T03:29:12.028Z,99.43
2023-03-04T03:31:40.350Z,99.05
2023-03-04T03:34:08.710Z,99.06
2023-03-04T03:36:37.093Z,99.02
2023-03-04T03:39:05.710Z,98.96
2023-03-04T03:41:34.075Z,98.98
2023-03-04T03:44:02.440Z,98.78
2023-03-04T03:46:30.787Z,98.67
2023-03-04T03:48:59.260Z,98.41
2023-03-04T03:51:27.614Z,98.28
2023-03-04T03:53:56.098Z,98.19
2023-03-04T03:56:24.479Z,98.17
2023-03-04T03:58:52.759Z,98.15
2023-03-04T04:01:21.108Z,97.97
2023-03-04T04:03:49.442Z,97.91
2023-03-04T04:06:17.827Z,97.92
2023-03-04T04:08:46.152Z,97.61
2023-03-04T04:11:14.595Z,97.37
2023-03-04T04:13:42.984Z,97.27
2023-03-04T04:16:11.855Z,97.56
2023-03-04T04:18:40.272Z,97.34
2023-03-04T04:21:09.517Z,97.46
2023-03-04T04:23:37.947Z,97.15
2023-03-04T04:26:06.299Z,97.26
2023-03-04T04:28:34.652Z,97.33
2023-03-04T04:31:03.159Z,97.21
2023-03-04T04:33:31.543Z,97.35
2023-03-04T04:36:01.331Z,97.31
2023-03-04T04:38:29.714Z,97.67
2023-03-04T04:40:59.334Z,97.45
2023-03-04T04:43:27.701Z,97.58
2023-03-04T04:45:59.104Z,97.40
2023-03-04T04:48:27.487Z,97.53
2023-03-04T04:50:56.722Z,97.36
2023-03-04T04:53:25.104Z,97.41
2023-03-04T04:55:53.582Z,97.40
2023-03-04T04:58:22.009Z,97.29
2023-03-04T05:00:50.306Z,97.23
2023-03-04T05:03:18.972Z,97.17
2023-03-04T05:05:47.419Z,97.10
2023-03-04T05:08:15.920Z,97.02
2023-03-04T05:10:44.279Z,96.75
2023-03-04T05:13:12.568Z,96.81
2023-03-04T05:15:40.987Z,96.87
2023-03-04T05:18:09.418Z,96.67
2023-03-04T05:20:37.774Z,96.49
2023-03-04T05:23:06.064Z,96.43
2023-03-04T05:25:34.381Z,96.41
2023-03-04T05:28:04.972Z,96.33
2023-03-04T05:30:33.272Z,96.16
2023-03-04T05:33:01.703Z,96.15
2023-03-04T05:35:30.619Z,96.08
2023-03-04T05:37:59.200Z,96.13
2023-03-04T05:40:27.834Z,96.21
2023-03-04T05:42:56.864Z,96.00
2023-03-04T05:45:26.993Z,95.93
2023-03-04T05:47:55.776Z,95.89
2023-03-04T05:50:24.634Z,95.73
2023-03-04T05:52:53.609Z,95.56
2023-03-04T05:55:22.014Z,95.73
2023-03-04T05:57:50.713Z,95.44
2023-03-04T06:00:19.644Z,95.55
2023-03-04T06:02:48.395Z,95.34
2023-03-04T06:05:17.768Z,95.33
2023-03-04T06:07:46.477Z,95.46
2023-03-04T06:10:18.336Z,95.14
2023-03-04T06:12:46.932Z,95.08
2023-03-04T06:15:15.240Z,94.97
2023-03-04T06:17:43.671Z,94.78
2023-03-04T06:20:12.814Z,94.98
2023-03-04T06:22:41.395Z,94.86
2023-03-04T06:25:10.332Z,94.86
2023-03-04T06:27:39.192Z,94.77
2023-03-04T06:30:09.107Z,94.68
2023-03-04T06:32:37.464Z,94.33
2023-03-04T06:35:07.019Z,94.06
2023-03-04T06:37:35.842Z,94.16
2023-03-04T06:40:05.323Z,93.90
2023-03-04T06:42:35.110Z,94.01
2023-03-04T06:45:04.715Z,94.01
2023-03-04T06:47:33.289Z,93.65
2023-03-04T06:50:03.145Z,93.56
2023-03-04T06:52:31.575Z,93.43
2023-03-04T06:55:00.742Z,93.35
2023-03-04T06:57:29.164Z,93.18
2023-03-04T06:59:57.551Z,93.25
2023-03-04T07:02:25.847Z,93.26
2023-03-04T07:04:54.375Z,93.26
2023-03-04T07:07:22.775Z,93.27
2023-03-04T07:09:51.067Z,93.04
2023-03-04T07:12:19.387Z,92.94
2023-03-04T07:14:47.744Z,92.53
2023-03-04T07:17:16.031Z,92.84
2023-03-04T07:19:44.719Z,92.92
2023-03-04T07:22:13.100Z,92.97
2023-03-04T07:24:41.397Z,92.82
2023-03-04T07:27:09.866Z,92.71
2023-03-04T07:29:38.200Z,92.52
2023-03-04T07:32:10.585Z,92.61
2023-03-04T07:34:38.998Z,92.89
2023-03-04T07:37:07.321Z,92.97
2023-03-04T07:39:35.674Z,93.03
2023-03-04T07:42:04.132Z,93.13
2023-03-04T07:44:32.780Z,93.24
2023-03-04T07:47:01.066Z,93.11
2023-03-04T07:49:29.353Z,92.95
2023-03-04T07:51:57.634Z,93.12
2023-03-04T07:54:25.975Z,93.34
2023-03-04T07:56:54.495Z,93.45
2023-03-04T07:59:22.959Z,93.66
2023-03-04T08:01:51.433Z,93.53
2023-03-04T08:04:19.729Z,93.89
2023-03-04T08:06:48.872Z,93.83
2023-03-04T08:09:17.249Z,94.17
2023-03-04T08:11:45.575Z,94.20
2023-03-04T08:14:14.902Z,94.39
2023-03-04T08:16:43.381Z,94.54
2023-03-04T08:19:12.538Z,94.65
2023-03-04T08:21:40.957Z,94.84
2023-03-04T08:24:11.520Z,95.08
2023-03-04T08:26:48.225Z,95.18
2023-03-04T08:29:21.222Z,95.07
2023-03-04T08:31:52.372Z,95.21
2023-03-04T08:34:25.957Z,95.34
2023-03-04T08:36:54.735Z,95.32
2023-03-04T08:39:23.130Z,95.31
2023-03-04T08:41:51.547Z,95.54
2023-03-04T08:44:20.285Z,95.41
2023-03-04T08:46:48.689Z,95.61
2023-03-04T08:49:17.024Z,95.90
2023-03-04T08:51:45.383Z,95.96
2023-03-04T08:54:13.931Z,96.05
2023-03-04T08:56:42.285Z,96.42
2023-03-04T08:59:10.705Z,96.46
2023-03-04T09:02:01.062Z,96.78
2023-03-04T09:04:29.471Z,96.55
2023-03-04T09:06:57.954Z,96.60
2023-03-04T09:09:26.412Z,96.63
2023-03-04T09:11:54.763Z,96.50
2023-03-04T09:14:23.303Z,96.41
2023-03-04T09:16:51.622Z,95.90
2023-03-04T09:19:20.032Z,96.06
2023-03-04T09:21:48.381Z,95.76
2023-03-04T09:24:16.742Z,95.64
2023-03-04T09:26:45.976Z,95.52
2023-03-04T09:29:14.494Z,95.28
2023-03-04T09:31:43.023Z,95.30
2023-03-04T09:34:11.481Z,95.49
2023-03-04T09:36:40.132Z,95.44
2023-03-04T09:39:08.465Z,95.46
2023-03-04T09:41:44.410Z,95.62
2023-03-04T09:44:40.101Z,95.43
2023-03-04T09:47:15.541Z,95.02
2023-03-04T09:49:54.941Z,94.89
2023-03-04T09:52:57.959Z,95.04
2023-03-04T09:55:35.553Z,95.50
2023-03-04T09:58:03.781Z,95.41
2023-03-04T10:00:42.962Z,95.63
2023-03-04T10:03:19.067Z,96.00
2023-03-04T10:06:05.946Z,96.24
2023-03-04T10:09:04.007Z,96.37
2023-03-04T10:11:49.246Z,96.43
2023-03-04T10:14:23.704Z,96.49
2023-03-04T10:16:56.027Z,96.40
2023-03-04T10:19:37.131Z,96.83
2023-03-04T10:23:07.117Z,96.99
2023-03-04T10:25:41.505Z,97.44
2023-03-04T10:28:17.321Z,97.42
2023-03-04T10:31:10.327Z,97.75
2023-03-04T10:33:40.914Z,97.61
2023-03-04T10:37:05.767Z,97.98
2023-03-04T10:39:46.770Z,97.70
2023-03-04T10:42:15.110Z,97.36
2023-03-04T10:44:53.840Z,97.25
2023-03-04T10:47:31.570Z,97.71
2023-03-04T10:50:03.509Z,97.52
2023-03-04T10:52:52.698Z,96.67
2023-03-04T10:55:30.092Z,96.27
2023-03-04T10:58:07.139Z,95.95
2023-03-04T11:00:38.818Z,96.07
2023-03-04T11:03:29.917Z,95.79
2023-03-04T11:06:20.482Z,95.76
2023-03-04T11:08:58.357Z,95.59
2023-03-04T11:11:45.946Z,94.91
2023-03-04T11:14:29.496Z,94.66
2023-03-04T11:17:15.814Z,94.94
2023-03-04T11:19:49.001Z,94.66
2023-03-04T11:22:21.440Z,94.32
2023-03-04T11:25:03.238Z,94.56
2023-03-04T11:27:45.796Z,93.93
2023-03-04T11:30:26.835Z,93.27
2023-03-04T11:33:05.531Z,93.54
2023-03-04T11:35:53.745Z,93.97
2023-03-04T11:38:35.248Z,93.26
2023-03-04T11:41:15.041Z,93.55
2023-03-04T11:43:46.734Z,93.09
2023-03-04T11:46:46.871Z,93.09
2023-03-04T11:49:34.680Z,93.07
2023-03-04T11:52:35.926Z,93.37
2023-03-04T11:55:29.868Z,93.01
2023-03-04T11:58:13.291Z,93.05
2023-03-04T12:01:10.402Z,93.53
2023-03-04T12:03:55.542Z,93.17
2023-03-04T12:06:50.743Z,92.74
2023-03-04T12:09:59.994Z,92.62
2023-03-04T12:13:01.323Z,92.34
2023-03-04T12:15:59.620Z,92.31
2023-03-04T12:19:15.167Z,92.41
2023-03-04T12:22:14.404Z,92.58
2023-03-04T12:25:15.673Z,92.80
2023-03-04T12:28:27.683Z,92.82
2023-03-04T12:31:20.035Z,93.21
2023-03-04T12:34:13.691Z,93.62
2023-03-04T12:37:31.091Z,93.11
2023-03-04T12:40:36.531Z,92.69
2023-03-04T12:43:17.062Z,92.17
2023-03-04T12:46:16.130Z,92.12
2023-03-04T12:49:02.527Z,92.17
2023-03-04T12:51:56.549Z,92.79
2023-03-04T12:54:38.362Z,93.25
2023-03-04T12:57:14.997Z,93.68
2023-03-04T12:59:55.787Z,94.16
2023-03-04T13:02:55.261Z,94.23
2023-03-04T13:05:52.932Z,94.32
2023-03-04T13:08:35.852Z,94.32
2023-03-04T13:11:27.456Z,94.64
2023-03-04T13:14:24.783Z,94.76
2023-03-04T13:16:57.779Z,94.88
2023-03-04T13:19:52.964Z,95.03
2023-03-04T13:22:30.477Z,95.07
2023-03-04T13:25:22.389Z,95.07
2023-03-04T13:28:11.156Z,95.25
2023-03-04T13:30:39.645Z,95.27
2023-03-04T13:33:11.237Z,95.58
2023-03-04T13:35:54.759Z,95.48
2023-03-04T13:38:33.520Z,95.58
2023-03-04T13:41:20.116Z,95.86
2023-03-04T13:43:53.464Z,96.01
2023-03-04T13:46:24.785Z,96.14
2023-03-04T13:48:53.121Z,96.13
2023-03-04T13:51:45.175Z,96.29
2023-03-04T13:54:20.323Z,96.69
2023-03-04T13:57:21.715Z,96.82
2023-03-04T13:59:56.808Z,97.29
2023-03-04T14:02:27.190Z,97.42
2023-03-04T14:05:02.042Z,97.70
2023-03-04T14:07:35.174Z,97.86
2023-03-04T14:10:12.686Z,98.01
2023-03-04T14:12:46.753Z,98.00
2023-03-04T14:15:29.548Z,98.03
2023-03-04T14:18:01.404Z,98.11
2023-03-04T14:20:33.438Z,98.00
2023-03-04T14:23:05.308Z,97.69
2023-03-04T14:25:37.005Z,97.24
2023-03-04T14:28:13.711Z,96.95
2023-03-04T14:30:44.652Z,96.70
2023-03-04T14:33:19.989Z,96.39
2023-03-04T14:35:53.190Z,96.29
2023-03-04T14:38:26.372Z,96.07
2023-03-04T14:41:06.540Z,96.46
2023-03-04T14:44:16.175Z,96.40
2023-03-04T14:47:04.611Z,96.13
2023-03-04T14:49:37.113Z,96.07
2023-03-04T14:52:06.236Z,95.98
2023-03-04T14:54:43.661Z,95.95
2023-03-04T14:57:34.699Z,96.03
2023-03-04T15:00:15.443Z,96.02
2023-03-04T15:02:44.337Z,95.81
2023-03-04T15:05:33.471Z,95.99
2023-03-04T15:08:35.013Z,95.96
2023-03-04T15:11:06.629Z,96.13
2023-03-04T15:13:44.996Z,96.15
2023-03-04T15:16:16.672Z,96.01
2023-03-04T15:19:23.205Z,95.99
2023-03-04T15:21:51.895Z,96.27
2023-03-04T15:24:20.552Z,96.33
2023-03-04T15:26:50.530Z,96.42
2023-03-04T15:29:22.356Z,96.61
2023-03-04T15:31:51.804Z,96.52
2023-03-04T15:34:21.092Z,96.78
2023-03-04T15:36:51.499Z,96.59
2023-03-04T15:39:21.722Z,96.63
2023-03-04T15:41:50.666Z,96.61
2023-03-04T15:44:19.294Z,96.42
2023-03-04T15:46:47.647Z,96.41
2023-03-04T15:49:15.933Z,96.41
2023-03-04T15:51:44.250Z,96.29
2023-03-04T15:54:14.058Z,96.41
2023-03-04T15:56:42.960Z,96.36
2023-03-04T15:59:16.015Z,96.25
2023-03-04T16:01:45.020Z,96.28
2023-03-04T16:04:16.902Z,96.20
2023-03-04T16:06:47.104Z,96.35
2023-03-04T16:09:19.769Z,96.36
2023-03-04T16:11:48.470Z,96.60
2023-03-04T16:14:17.114Z,96.57
2023-03-04T16:16:46.986Z,96.80
2023-03-04T16:19:15.632Z,96.90
2023-03-04T16:21:44.140Z,97.03
2023-03-04T16:24:18.860Z,97.21
2023-03-04T16:26:47.995Z,97.46
2023-03-04T16:29:16.628Z,97.54
2023-03-04T16:31:45.115Z,97.69
2023-03-04T16:34:13.564Z,97.69
2023-03-04T16:36:42.106Z,97.76
2023-03-04T16:39:21.291Z,97.79
2023-03-04T16:41:50.732Z,97.90
2023-03-04T16:44:19.078Z,98.23
2023-03-04T16:46:47.660Z,98.15
2023-03-04T16:49:16.175Z,98.22
2023-03-04T16:51:49.859Z,98.05
2023-03-04T16:54:30.509Z,98.41
2023-03-04T16:56:59.896Z,98.47
2023-03-04T16:59:29.515Z,98.65
2023-03-04T17:01:58.085Z,98.63
2023-03-04T17:04:26.501Z,98.49
2023-03-04T17:06:54.884Z,98.60
2023-03-04T17:09:23.340Z,98.75
2023-03-04T17:11:53.173Z,99.02
2023-03-04T17:14:22.908Z,99.03
2023-03-04T17:16:51.319Z,99.12
2023-03-04T17:19:19.681Z,99.23
2023-03-04T17:21:48.012Z,99.71
2023-03-04T17:24:16.344Z,99.60
2023-03-04T17:26:44.691Z,99.63
2023-03-04T17:29:13.297Z,99.65
2023-03-04T17:31:44.630Z,99.50
2023-03-04T17:34:13.676Z,99.63
2023-03-04T17:36:42.008Z,99.69
2023-03-04T17:39:11.664Z,99.65
2023-03-04T17:41:40.375Z,99.83
2023-03-04T17:44:10.035Z,99.79
2023-03-04T17:46:39.110Z,99.81
2023-03-04T17:49:07.661Z,99.74
2023-03-04T17:51:39.313Z,99.75
2023-03-04T17:54:09.654Z,99.89
2023-03-04T17:56:40.594Z,99.93
2023-03-04T17:59:16.009Z,99.82
2023-03-04T18:01:45.270Z,99.73
2023-03-04T18:04:14.727Z,99.81
2023-03-04T18:06:43.213Z,99.85
2023-03-04T18:09:11.879Z,99.94
2023-03-04T18:11:42.316Z,99.74
2023-03-04T18:14:12.797Z,99.65
2023-03-04T18:16:41.795Z,99.49
2023-03-04T18:19:10.358Z,99.40
2023-03-04T18:21:38.766Z,99.27
2023-03-04T18:24:08.525Z,99.23
2023-03-04T18:26:37.111Z,99.04
2023-03-04T18:29:05.619Z,98.90
2023-03-04T18:31:36.807Z,98.83
2023-03-04T18:34:05.289Z,98.70
2023-03-04T18:36:33.870Z,98.59
2023-03-04T18:39:05.226Z,98.41
2023-03-04T18:41:33.907Z,98.36
2023-03-04T18:44:02.406Z,98.39
2023-03-04T18:46:53.536Z,98.20
2023-03-04T18:49:22.851Z,98.03
2023-03-04T18:51:51.825Z,98.13
2023-03-04T18:54:20.381Z,97.87
2023-03-04T18:56:57.211Z,97.78
2023-03-04T18:59:36.860Z,97.71
2023-03-04T19:02:21.327Z,97.48
2023-03-04T19:04:50.541Z,97.43
2023-03-04T19:07:18.918Z,97.28
2023-03-04T19:09:47.219Z,97.02
2023-03-04T19:12:15.553Z,96.87
2023-03-04T19:14:43.933Z,97.00
2023-03-04T19:17:12.300Z,96.70
2023-03-04T19:19:41.302Z,96.71
2023-03-04T19:22:09.706Z,96.70
2023-03-04T19:24:38.260Z,96.53
2023-03-04T19:27:06.549Z,96.67
2023-03-04T19:29:35.053Z,96.58
2023-03-04T19:32:03.387Z,96.55
2023-03-04T19:34:31.748Z,96.52
2023-03-04T19:37:00.094Z,96.41
2023-03-04T19:39:28.460Z,96.42
2023-03-04T19:41:56.775Z,96.33
2023-03-04T19:44:25.297Z,96.40
2023-03-04T19:46:53.713Z,96.22
2023-03-04T19:49:22.139Z,96.23
2023-03-04T19:51:50.623Z,96.10
2023-03-04T19:54:19.043Z,95.21
2023-03-04T19:56:47.567Z,94.60
2023-03-04T19:59:16.195Z,93.85
2023-03-04T20:01:45.604Z,92.38
2023-03-04T20:04:18.383Z,91.71
2023-03-04T20:06:50.340Z,90.62
2023-03-04T20:09:20.042Z,90.30
2023-03-04T20:11:58.494Z,89.89
2023-03-04T20:14:27.887Z,89.71
2023-03-04T20:17:02.644Z,89.35
2023-03-04T20:19:33.762Z,88.74
2023-03-04T20:22:05.686Z,88.41
2023-03-04T20:24:34.291Z,88.51
2023-03-04T20:27:02.981Z,87.99
2023-03-04T20:29:31.496Z,87.74
2023-03-04T20:32:00.065Z,87.82
2023-03-04T20:34:28.627Z,87.68
2023-03-04T20:36:59.880Z,87.48
2023-03-04T20:39:30.086Z,87.43
2023-03-04T20:41:59.538Z,86.76
2023-03-04T20:44:28.176Z,86.68
2023-03-04T20:46:56.945Z,86.26
2023-03-04T20:49:28.230Z,85.98
2023-03-04T20:52:09.128Z,85.54
2023-03-04T20:54:39.324Z,85.43
2023-03-04T20:57:08.617Z,85.44
2023-03-04T20:59:39.836Z,85.34
2023-03-04T21:02:13.461Z,84.69
2023-03-04T21:04:42.203Z,84.46
2023-03-04T21:07:11.898Z,84.34
2023-03-04T21:09:40.266Z,84.24
2023-03-04T21:12:10.944Z,83.43
2023-03-04T21:14:42.437Z,83.33
2023-03-04T21:17:11.737Z,83.41
2023-03-04T21:19:43.317Z,83.01
2023-03-04T21:22:18.324Z,82.85
2023-03-04T21:24:47.949Z,82.76
2023-03-04T21:27:17.025Z,82.79
2023-03-04T21:29:45.893Z,82.61
2023-03-04T21:32:24.634Z,82.26
2023-03-04T21:34:55.386Z,81.73
2023-03-04T21:37:25.464Z,81.68
2023-03-04T21:39:56.118Z,81.76
2023-03-04T21:42:24.569Z,81.54
2023-03-04T21:44:53.114Z,81.60
2023-03-04T21:47:22.437Z,81.51
2023-03-04T21:49:51.395Z,81.76
2023-03-04T21:52:21.702Z,81.95
2023-03-04T21:54:50.394Z,81.87
2023-03-04T21:57:19.809Z,81.92
2023-03-04T21:59:48.998Z,82.01
2023-03-04T22:02:21.201Z,82.23
2023-03-04T22:04:49.765Z,82.16
2023-03-04T22:07:18.164Z,82.16
2023-03-04T22:09:46.846Z,82.13
2023-03-04T22:12:16.947Z,82.00
2023-03-04T22:14:46.868Z,82.15
2023-03-04T22:17:15.475Z,82.04
2023-03-04T22:19:44.058Z,82.10
2023-03-04T22:22:12.586Z,82.17
2023-03-04T22:24:40.948Z,82.27
2023-03-04T22:27:09.303Z,82.22
2023-03-04T22:29:37.696Z,82.34
2023-03-04T22:32:06.339Z,82.49
2023-03-04T22:34:34.780Z,82.44
2023-03-04T22:37:03.177Z,82.46
2023-03-04T22:39:31.566Z,82.61
2023-03-04T22:41:59.944Z,82.23
2023-03-04T22:44:28.335Z,81.45
2023-03-04T22:46:56.690Z,81.65
2023-03-04T22:49:25.051Z,81.47
2023-03-04T22:51:53.384Z,81.43
2023-03-04T22:54:21.852Z,81.23
2023-03-04T22:56:50.207Z,81.04
2023-03-04T22:59:18.668Z,81.09
2023-03-04T23:01:46.977Z,81.13
2023-03-04T23:04:15.352Z,81.19
2023-03-04T23:06:43.839Z,81.05
2023-03-04T23:09:12.249Z,80.95
2023-03-04T23:11:40.860Z,80.99
2023-03-04T23:14:11.812Z,80.74
2023-03-04T23:16:44.795Z,80.67
2023-03-04T23:19:17.287Z,80.74
2023-03-04T23:21:45.738Z,80.58
2023-03-04T23:24:14.328Z,80.47
2023-03-04T23:26:43.882Z,80.41
2023-03-04T23:29:14.991Z,80.07
2023-03-04T23:31:44.369Z,79.98
2023-03-04T23:34:13.899Z,79.59
2023-03-04T23:36:42.757Z,79.66
2023-03-04T23:39:12.361Z,79.61
2023-03-04T23:41:40.917Z,79.40
2023-03-04T23:44:12.402Z,79.61
2023-03-04T23:46:41.171Z,79.31
2023-03-04T23:49:13.009Z,79.30
2023-03-04T23:51:43.988Z,79.31
2023-03-04T23:54:14.224Z,79.12
2023-03-04T23:56:42.608Z,79.09
2023-03-04T23:59:12.280Z,79.02
